createdAt,value
2018-12-31T00:01:09.512Z,9.30
2018-12-31T00:03:39.438Z,8.85
2018-12-31T00:06:09.761Z,8.70
2018-12-31T00:08:42.451Z,8.28
2018-12-31T00:11:15.278Z,8.50
2018-12-31T00:13:46.201Z,8.90
2018-12-31T00:16:19.056Z,8.70
2018-12-31T00:18:48.872Z,9.58
2018-12-31T00:21:18.849Z,10.28
2018-12-31T00:23:48.644Z,8.80
2018-12-31T00:26:18.613Z,10.10
2018-12-31T00:28:48.388Z,9.10
2018-12-31T00:31:18.239Z,10.28
2018-12-31T00:33:48.057Z,9.08
2018-12-31T00:36:17.897Z,10.88
2018-12-31T00:38:47.693Z,10.50
2018-12-31T00:41:17.538Z,8.75
2018-12-31T00:43:47.446Z,9.45
2018-12-31T00:46:17.795Z,10.03
2018-12-31T00:48:47.604Z,9.45
2018-12-31T00:51:17.451Z,10.10
2018-12-31T00:53:47.242Z,9.70
2018-12-31T00:56:16.988Z,8.85
2018-12-31T00:59:04.160Z,8.23
2018-12-31T01:01:40.660Z,8.68
2018-12-31T01:04:10.460Z,8.75
2018-12-31T01:06:40.409Z,9.38
2018-12-31T01:09:10.373Z,8.65
2018-12-31T01:11:40.303Z,8.28
2018-12-31T01:14:10.137Z,9.90
2018-12-31T01:16:39.925Z,8.73
2018-12-31T01:19:09.848Z,9.30
2018-12-31T01:21:41.976Z,9.63
2018-12-31T01:24:11.925Z,8.83
2018-12-31T01:26:41.903Z,8.28
2018-12-31T01:29:12.817Z,8.35
2018-12-31T01:31:42.665Z,8.83
2018-12-31T01:34:12.841Z,8.33
2018-12-31T01:36:44.439Z,9.38
2018-12-31T01:39:14.259Z,7.67
2018-12-31T01:41:44.052Z,7.37
2018-12-31T01:44:13.837Z,7.55
2018-12-31T01:46:43.625Z,9.10
2018-12-31T01:49:13.400Z,8.00
2018-12-31T01:51:43.269Z,7.12
2018-12-31T01:54:13.050Z,7.85
2018-12-31T01:56:42.805Z,8.25
2018-12-31T01:59:12.598Z,8.13
2018-12-31T02:01:42.365Z,6.35
2018-12-31T02:04:12.231Z,7.28
2018-12-31T02:06:53.562Z,6.60
2018-12-31T02:09:22.130Z,6.78
2018-12-31T02:11:52.625Z,8.33
2018-12-31T02:14:22.495Z,7.03
2018-12-31T02:16:52.375Z,7.97
2018-12-31T02:19:22.267Z,6.12
2018-12-31T02:21:52.208Z,6.10
2018-12-31T02:24:22.091Z,5.83
2018-12-31T02:26:51.915Z,5.85
2018-12-31T02:29:21.711Z,6.75
2018-12-31T02:31:51.588Z,5.83
2018-12-31T02:34:21.347Z,5.55
2018-12-31T02:36:51.204Z,4.90
2018-12-31T02:39:21.071Z,5.40
2018-12-31T02:41:50.943Z,6.10
2018-12-31T02:44:20.983Z,5.25
2018-12-31T02:46:50.864Z,5.30
2018-12-31T02:49:20.737Z,4.97
2018-12-31T02:51:50.649Z,5.08
2018-12-31T02:54:20.506Z,5.12
2018-12-31T02:56:50.384Z,4.80
2018-12-31T02:59:20.274Z,4.80
2018-12-31T03:01:50.310Z,4.03
2018-12-31T03:04:20.321Z,4.60
2018-12-31T03:06:50.252Z,4.55
2018-12-31T03:09:20.082Z,4.80
2018-12-31T03:11:49.998Z,5.60
2018-12-31T03:14:19.975Z,4.45
2018-12-31T03:16:50.000Z,5.55
2018-12-31T03:19:19.849Z,4.90
2018-12-31T03:21:49.780Z,5.12
2018-12-31T03:24:19.617Z,4.78
2018-12-31T03:26:49.493Z,5.12
2018-12-31T03:29:19.336Z,4.95
2018-12-31T03:31:49.313Z,5.17
2018-12-31T03:34:19.205Z,5.78
2018-12-31T03:36:49.182Z,5.28
2018-12-31T03:39:19.092Z,4.37
2018-12-31T03:41:49.093Z,4.75
2018-12-31T03:44:19.113Z,5.25
2018-12-31T03:46:48.961Z,4.35
2018-12-31T03:49:18.890Z,4.30
2018-12-31T03:51:48.823Z,4.35
2018-12-31T03:54:18.631Z,4.22
2018-12-31T03:56:50.413Z,4.83
2018-12-31T03:59:20.274Z,4.67
2018-12-31T04:01:50.064Z,4.50
2018-12-31T04:04:19.865Z,3.70
2018-12-31T04:06:49.779Z,3.85
2018-12-31T04:09:19.667Z,3.75
2018-12-31T04:11:49.491Z,4.97
2018-12-31T04:14:19.345Z,4.03
2018-12-31T04:16:49.188Z,4.08
2018-12-31T04:19:19.023Z,4.20
2018-12-31T04:21:48.922Z,3.72
2018-12-31T04:24:18.786Z,4.00
2018-12-31T04:26:48.605Z,3.30
2018-12-31T04:29:18.515Z,3.22
2018-12-31T04:31:48.328Z,4.10
2018-12-31T04:34:18.249Z,3.77
2018-12-31T04:36:48.168Z,3.42
2018-12-31T04:39:18.013Z,3.80
2018-12-31T04:41:47.890Z,3.35
2018-12-31T04:44:17.992Z,3.60
2018-12-31T04:46:47.919Z,3.33
2018-12-31T04:49:17.990Z,3.37
2018-12-31T04:51:47.848Z,3.70
2018-12-31T04:54:18.269Z,3.25
2018-12-31T04:57:02.289Z,4.40
2018-12-31T04:59:32.126Z,3.42
2018-12-31T05:02:03.269Z,3.85
2018-12-31T05:04:33.313Z,4.08
2018-12-31T05:07:03.458Z,3.60
2018-12-31T05:09:33.312Z,4.20
2018-12-31T05:12:03.177Z,3.75
2018-12-31T05:14:33.188Z,3.90
2018-12-31T05:17:03.107Z,3.30
2018-12-31T05:19:33.175Z,3.08
2018-12-31T05:22:03.024Z,3.20
2018-12-31T05:24:33.165Z,3.37
2018-12-31T05:27:03.249Z,3.65
2018-12-31T05:29:33.072Z,2.90
2018-12-31T05:32:03.369Z,3.10
2018-12-31T05:34:33.312Z,2.83
2018-12-31T05:37:10.493Z,2.72
2018-12-31T05:39:42.382Z,2.60
2018-12-31T05:42:15.261Z,3.50
2018-12-31T05:44:45.082Z,3.05
2018-12-31T05:47:14.950Z,2.67
2018-12-31T05:49:44.804Z,2.62
2018-12-31T05:52:14.752Z,2.90
2018-12-31T05:54:44.542Z,2.47
2018-12-31T05:57:14.436Z,3.40
2018-12-31T05:59:44.412Z,3.05
2018-12-31T06:02:14.229Z,2.37
2018-12-31T06:04:44.109Z,2.80
2018-12-31T06:07:13.939Z,2.90
2018-12-31T06:09:43.886Z,3.30
2018-12-31T06:12:13.799Z,2.90
2018-12-31T06:14:43.665Z,2.83
2018-12-31T06:17:13.611Z,2.58
2018-12-31T06:19:43.458Z,2.72
2018-12-31T06:22:13.325Z,3.20
2018-12-31T06:24:43.241Z,3.70
2018-12-31T06:27:13.064Z,2.95
2018-12-31T06:29:43.210Z,3.47
2018-12-31T06:32:13.081Z,3.17
2018-12-31T06:34:43.349Z,3.35
2018-12-31T06:37:13.156Z,3.30
2018-12-31T06:39:44.421Z,3.37
2018-12-31T06:42:14.415Z,3.55
2018-12-31T06:44:44.452Z,3.10
2018-12-31T06:47:14.377Z,3.00
2018-12-31T06:49:47.363Z,3.10
2018-12-31T06:52:17.192Z,3.45
2018-12-31T06:54:47.037Z,3.42
2018-12-31T06:57:16.917Z,3.35
2018-12-31T06:59:47.670Z,3.47
2018-12-31T07:02:17.705Z,3.05
2018-12-31T07:04:47.496Z,3.40
2018-12-31T07:07:17.449Z,3.87
2018-12-31T07:09:47.357Z,3.72
2018-12-31T07:12:17.236Z,4.40
2018-12-31T07:14:47.224Z,4.35
2018-12-31T07:17:18.065Z,3.50
2018-12-31T07:19:47.980Z,3.85
2018-12-31T07:22:18.018Z,4.55
2018-12-31T07:24:47.968Z,4.25
2018-12-31T07:27:22.428Z,4.15
2018-12-31T07:29:56.283Z,3.90
2018-12-31T07:32:26.260Z,4.47
2018-12-31T07:34:56.544Z,4.28
2018-12-31T07:37:31.130Z,4.05
2018-12-31T07:40:04.015Z,3.77
2018-12-31T07:42:36.254Z,4.55
2018-12-31T07:45:06.171Z,4.47
2018-12-31T07:47:36.084Z,4.58
2018-12-31T07:50:05.955Z,4.40
2018-12-31T07:52:35.767Z,4.87
2018-12-31T07:55:05.571Z,3.65
2018-12-31T07:57:35.539Z,4.35
2018-12-31T08:00:06.499Z,4.53
2018-12-31T08:02:36.400Z,4.00
2018-12-31T08:05:06.302Z,4.15
2018-12-31T08:07:36.229Z,3.45
2018-12-31T08:10:06.224Z,3.50
2018-12-31T08:12:36.221Z,3.35
2018-12-31T08:15:06.442Z,4.50
2018-12-31T08:17:36.210Z,3.80
2018-12-31T08:20:06.040Z,3.90
2018-12-31T08:22:35.850Z,3.10
2018-12-31T08:25:05.667Z,3.37
2018-12-31T08:27:35.532Z,3.08
2018-12-31T08:30:05.530Z,3.30
2018-12-31T08:32:36.351Z,2.60
2018-12-31T08:35:06.164Z,2.50
2018-12-31T08:37:35.951Z,2.65
2018-12-31T08:40:05.745Z,2.58
2018-12-31T08:42:35.491Z,2.65
2018-12-31T08:45:05.585Z,1.82
2018-12-31T08:47:35.685Z,2.00
2018-12-31T08:50:06.244Z,1.90
2018-12-31T08:52:36.215Z,1.85
2018-12-31T08:55:07.083Z,1.80
2018-12-31T08:57:37.004Z,2.00
2018-12-31T09:00:08.104Z,1.50
2018-12-31T09:02:38.032Z,2.20
2018-12-31T09:05:08.153Z,2.25
2018-12-31T09:07:41.146Z,2.37
2018-12-31T09:10:23.978Z,2.00
2018-12-31T09:12:54.037Z,2.30
2018-12-31T09:19:49.723Z,2.65
2018-12-31T09:22:22.521Z,2.65
2018-12-31T09:24:58.323Z,2.60
2018-12-31T09:27:28.224Z,3.20
2018-12-31T09:29:58.020Z,2.83
2018-12-31T09:32:27.913Z,3.58
2018-12-31T09:34:57.831Z,2.80
2018-12-31T09:37:28.049Z,3.20
2018-12-31T09:39:57.831Z,4.50
2018-12-31T09:42:27.753Z,2.85
2018-12-31T09:44:57.732Z,2.80
2018-12-31T09:47:27.884Z,2.87
2018-12-31T09:49:57.806Z,3.60
2018-12-31T09:52:28.224Z,3.50
2018-12-31T09:54:58.437Z,3.37
2018-12-31T09:57:28.474Z,2.80
2018-12-31T09:59:58.353Z,4.10
2018-12-31T10:02:36.461Z,2.58
2018-12-31T10:05:06.365Z,2.55
2018-12-31T10:07:36.189Z,2.70
2018-12-31T10:10:06.949Z,2.67
2018-12-31T10:12:36.835Z,3.30
2018-12-31T10:15:07.508Z,2.90
2018-12-31T10:17:37.275Z,2.90
2018-12-31T10:20:07.243Z,2.70
2018-12-31T10:22:37.068Z,2.85
2018-12-31T10:25:07.023Z,2.65
2018-12-31T10:27:37.632Z,2.65
2018-12-31T10:30:07.427Z,2.60
2018-12-31T10:32:37.500Z,3.15
2018-12-31T10:35:11.136Z,3.17
2018-12-31T10:37:41.620Z,3.25
2018-12-31T10:40:13.167Z,4.37
2018-12-31T10:42:52.731Z,4.03
2018-12-31T10:45:20.295Z,3.80
2018-12-31T10:47:56.847Z,4.53
2018-12-31T10:50:59.706Z,3.87
2018-12-31T10:53:29.791Z,4.30
2018-12-31T10:56:01.874Z,3.67
2018-12-31T10:58:32.100Z,5.03
2018-12-31T11:01:02.240Z,5.42
2018-12-31T11:03:32.591Z,4.42
2018-12-31T11:06:02.583Z,3.83
2018-12-31T11:08:32.825Z,3.30
2018-12-31T11:11:03.274Z,2.98
2018-12-31T11:13:33.294Z,3.33
2018-12-31T11:16:03.330Z,3.75
2018-12-31T11:18:33.253Z,3.77
2018-12-31T11:21:03.214Z,3.42
2018-12-31T11:23:33.303Z,3.10
2018-12-31T11:26:03.144Z,3.50
2018-12-31T11:28:33.061Z,3.55
2018-12-31T11:31:03.076Z,2.80
2018-12-31T11:33:33.113Z,3.58
2018-12-31T11:36:02.995Z,3.22
2018-12-31T11:38:32.901Z,3.70
2018-12-31T11:41:03.001Z,3.40
2018-12-31T11:43:35.520Z,3.90
2018-12-31T11:46:06.452Z,2.52
2018-12-31T11:48:36.513Z,4.30
2018-12-31T11:51:51.563Z,4.17
2018-12-31T11:54:41.347Z,4.50
2018-12-31T11:57:13.062Z,3.65
2018-12-31T11:59:48.328Z,4.25
2018-12-31T12:02:23.629Z,3.95
2018-12-31T12:04:57.305Z,5.37
2018-12-31T12:07:28.833Z,4.85
2018-12-31T12:09:59.589Z,5.15
2018-12-31T12:12:29.606Z,4.45
2018-12-31T12:14:59.513Z,5.22
2018-12-31T12:17:30.623Z,4.92
2018-12-31T12:20:00.741Z,4.55
2018-12-31T12:22:31.156Z,4.70
2018-12-31T12:25:02.365Z,4.20
2018-12-31T12:27:33.692Z,5.15
2018-12-31T12:30:07.235Z,4.95
2018-12-31T12:32:39.379Z,5.40
2018-12-31T12:35:09.620Z,5.20
2018-12-31T12:37:39.739Z,5.58
2018-12-31T12:40:13.918Z,5.22
2018-12-31T12:42:57.590Z,6.20
2018-12-31T12:45:27.716Z,5.80
2018-12-31T12:47:57.782Z,5.12
2018-12-31T12:50:28.067Z,5.65
2018-12-31T12:52:58.216Z,4.50
2018-12-31T12:55:41.775Z,4.40
2018-12-31T12:58:12.078Z,4.25
2018-12-31T13:00:42.489Z,4.42
2018-12-31T13:03:12.751Z,4.17
2018-12-31T13:05:44.431Z,4.03
2018-12-31T13:08:14.764Z,4.83
2018-12-31T13:11:43.542Z,5.40
2018-12-31T13:14:44.589Z,4.70
2018-12-31T13:17:12.727Z,5.12
2018-12-31T13:19:46.278Z,4.40
2018-12-31T13:22:17.932Z,4.15
2018-12-31T13:25:03.602Z,4.70
2018-12-31T13:27:35.853Z,4.97
2018-12-31T13:30:10.534Z,4.28
2018-12-31T13:32:40.922Z,4.60
2018-12-31T13:35:13.352Z,4.42
2018-12-31T13:37:46.374Z,4.50
2018-12-31T13:40:22.451Z,4.65
2018-12-31T13:42:52.727Z,4.37
2018-12-31T13:45:27.357Z,4.58
2018-12-31T13:48:03.212Z,4.67
2018-12-31T13:50:33.665Z,4.50
2018-12-31T13:55:49.651Z,3.95
2018-12-31T14:08:22.247Z,3.80
2018-12-31T14:20:42.125Z,4.70
2018-12-31T14:56:55.507Z,5.03
2018-12-31T15:03:48.461Z,6.03
2018-12-31T15:11:06.553Z,5.72
2018-12-31T15:13:57.967Z,5.10
2018-12-31T15:16:29.591Z,5.08
2018-12-31T15:19:02.375Z,5.97
2018-12-31T15:21:34.650Z,5.35
2018-12-31T15:24:07.831Z,5.10
2018-12-31T15:26:53.509Z,5.53
2018-12-31T15:29:27.943Z,6.83
2018-12-31T15:32:16.278Z,5.90
2018-12-31T15:34:54.625Z,4.65
2018-12-31T15:37:55.454Z,4.85
2018-12-31T15:40:36.223Z,5.95
2018-12-31T15:43:07.746Z,6.03
2018-12-31T15:45:37.883Z,7.90
2018-12-31T15:48:08.006Z,6.00
2018-12-31T15:50:43.470Z,5.85
2018-12-31T15:53:13.264Z,6.67
2018-12-31T15:55:44.814Z,7.10
2018-12-31T15:58:15.204Z,6.12
2018-12-31T16:00:45.517Z,6.62
2018-12-31T16:03:20.298Z,6.45
2018-12-31T16:05:50.097Z,6.60
2018-12-31T16:08:20.521Z,6.85
2018-12-31T16:10:53.715Z,6.75
2018-12-31T16:13:23.656Z,7.50
2018-12-31T16:15:53.934Z,7.08
2018-12-31T16:18:24.281Z,6.62
2018-12-31T16:20:54.389Z,6.83
2018-12-31T16:23:24.937Z,6.95
2018-12-31T16:26:07.776Z,9.05
2018-12-31T16:28:39.514Z,10.93
2018-12-31T16:31:09.686Z,9.20
2018-12-31T16:33:39.782Z,11.78
2018-12-31T16:36:09.903Z,13.20
2018-12-31T16:38:42.883Z,11.25
2018-12-31T16:41:13.140Z,11.97
2018-12-31T16:43:46.425Z,10.30
2018-12-31T16:46:19.477Z,9.80
2018-12-31T16:48:50.193Z,10.75
2018-12-31T16:51:20.181Z,11.10
2018-12-31T16:53:52.498Z,9.68
2018-12-31T16:56:29.157Z,9.85
2018-12-31T16:58:59.412Z,9.98
2018-12-31T17:01:29.988Z,10.13
2018-12-31T17:04:00.120Z,9.98
2018-12-31T17:06:32.857Z,10.00
2018-12-31T17:09:05.781Z,10.10
2018-12-31T17:11:37.541Z,10.15
2018-12-31T17:14:08.462Z,11.73
2018-12-31T17:16:53.050Z,10.85
2018-12-31T17:19:22.924Z,11.48
2018-12-31T17:21:53.030Z,12.15
2018-12-31T17:24:24.889Z,11.73
2018-12-31T17:26:55.360Z,11.53
2018-12-31T17:29:30.192Z,14.53
2018-12-31T17:32:05.278Z,11.65
2018-12-31T17:37:05.340Z,12.23
2018-12-31T17:39:35.351Z,13.55
2018-12-31T17:42:09.793Z,13.55
2018-12-31T17:44:38.560Z,13.40
2018-12-31T17:47:08.750Z,12.98
2018-12-31T17:49:38.632Z,13.28
2018-12-31T17:52:08.571Z,12.90
2018-12-31T17:54:42.179Z,13.95
2018-12-31T17:57:12.697Z,12.50
2018-12-31T18:00:11.982Z,12.40
2018-12-31T18:02:42.275Z,15.43
2018-12-31T18:05:12.095Z,13.20
2018-12-31T18:07:43.073Z,14.78
2018-12-31T18:10:13.218Z,14.85
2018-12-31T18:12:43.504Z,15.58
2018-12-31T18:15:13.560Z,15.65
2018-12-31T18:17:45.224Z,15.98
2018-12-31T18:20:15.095Z,16.07
2018-12-31T18:22:50.903Z,17.10
2018-12-31T18:25:28.519Z,18.25
2018-12-31T18:27:59.205Z,20.15
2018-12-31T18:30:29.514Z,22.52
2018-12-31T18:32:59.812Z,23.30
2018-12-31T18:36:01.528Z,22.82
2018-12-31T18:38:38.169Z,22.40
2018-12-31T18:46:30.278Z,20.20
2018-12-31T18:49:00.252Z,19.48
2018-12-31T18:51:30.061Z,19.48
2018-12-31T18:54:00.083Z,20.20
2018-12-31T18:56:31.776Z,21.62
2018-12-31T18:59:01.799Z,99.07
2018-12-31T19:01:31.779Z,68.70
2018-12-31T19:04:01.833Z,42.93
2018-12-31T19:06:32.059Z,30.90
2018-12-31T19:09:02.317Z,24.50
2018-12-31T19:11:32.460Z,23.65
2018-12-31T19:14:04.019Z,23.18
2018-12-31T19:16:33.885Z,22.00
2018-12-31T19:19:03.998Z,26.68
2018-12-31T19:21:34.304Z,21.80
2018-12-31T19:24:07.495Z,22.65
2018-12-31T19:26:37.471Z,23.30
2018-12-31T19:29:07.307Z,23.77
2018-12-31T19:31:40.262Z,22.85
2018-12-31T19:34:10.245Z,20.45
2018-12-31T19:36:40.101Z,22.60
2018-12-31T19:39:10.081Z,26.65
2018-12-31T19:41:39.956Z,25.80
2018-12-31T19:44:10.045Z,24.00
2018-12-31T19:46:40.191Z,25.43
2018-12-31T19:49:10.290Z,24.25
2018-12-31T19:51:40.091Z,25.12
2018-12-31T19:54:14.871Z,28.10
2018-12-31T19:57:00.216Z,27.02
2018-12-31T19:59:37.000Z,25.05
2018-12-31T20:02:06.884Z,26.90
2018-12-31T20:04:37.610Z,28.45
2018-12-31T20:07:07.747Z,41.90
2018-12-31T20:09:40.666Z,37.95
2018-12-31T20:12:19.054Z,41.20
2018-12-31T20:14:49.380Z,41.50
2018-12-31T20:17:22.100Z,44.38
2018-12-31T20:19:52.003Z,42.80
2018-12-31T20:22:27.487Z,33.50
2018-12-31T20:24:59.984Z,34.35
2018-12-31T20:27:29.801Z,32.73
2018-12-31T20:29:59.564Z,29.65
2018-12-31T20:32:29.328Z,33.58
2018-12-31T20:34:59.145Z,31.12
2018-12-31T20:37:29.163Z,31.27
2018-12-31T20:39:58.956Z,34.25
2018-12-31T20:42:28.805Z,28.92
2018-12-31T20:44:59.971Z,27.70
2018-12-31T20:47:29.923Z,24.37
2018-12-31T20:49:59.755Z,22.55
2018-12-31T20:52:29.578Z,23.05
2018-12-31T20:54:59.406Z,21.82
2018-12-31T20:57:29.289Z,18.87
2018-12-31T20:59:59.123Z,19.95
2018-12-31T21:02:29.783Z,20.50
2018-12-31T21:04:59.582Z,22.30
2018-12-31T21:07:29.595Z,21.33
2018-12-31T21:09:59.458Z,22.55
2018-12-31T21:12:29.310Z,23.25
2018-12-31T21:14:59.242Z,22.67
2018-12-31T21:17:30.421Z,30.65
2018-12-31T21:20:00.590Z,32.40
2018-12-31T21:22:30.608Z,32.63
2018-12-31T21:25:01.470Z,30.45
2018-12-31T21:27:31.740Z,29.72
2018-12-31T21:30:01.550Z,30.15
2018-12-31T21:32:31.484Z,32.80
2018-12-31T21:35:01.312Z,34.63
2018-12-31T21:37:35.006Z,31.75
2018-12-31T21:40:07.785Z,27.25
2018-12-31T21:42:38.799Z,26.10
2018-12-31T21:45:08.590Z,26.95
2018-12-31T21:47:38.389Z,27.98
2018-12-31T21:50:08.180Z,33.83
2018-12-31T21:52:37.972Z,35.38
2018-12-31T21:55:07.880Z,41.05
2018-12-31T21:57:37.722Z,44.67
2018-12-31T22:00:08.122Z,46.98
2018-12-31T22:02:42.769Z,46.48
2018-12-31T22:05:12.564Z,51.83
2018-12-31T22:07:42.415Z,56.85
2018-12-31T22:10:12.313Z,48.90
2018-12-31T22:12:42.140Z,51.23
2018-12-31T22:15:11.995Z,49.55
2018-12-31T22:17:41.855Z,47.65
2018-12-31T22:20:11.618Z,46.83
2018-12-31T22:22:41.516Z,42.88
2018-12-31T22:25:11.345Z,39.42
2018-12-31T22:27:41.133Z,54.27
2018-12-31T22:30:11.058Z,61.28
2018-12-31T22:32:40.767Z,63.75
2018-12-31T22:35:10.605Z,63.20
2018-12-31T22:37:40.503Z,62.00
2018-12-31T22:40:10.453Z,50.33
2018-12-31T22:42:40.683Z,64.32
2018-12-31T22:45:10.493Z,69.47
2018-12-31T22:47:40.259Z,62.62
2018-12-31T22:50:10.765Z,68.25
2018-12-31T22:52:40.518Z,78.42
2018-12-31T22:55:10.467Z,74.97
2018-12-31T22:57:40.382Z,77.58
2018-12-31T23:00:11.030Z,269.73
2018-12-31T23:02:41.225Z,153.50
2018-12-31T23:05:13.155Z,261.40
2018-12-31T23:07:43.310Z,681.00
2018-12-31T23:10:13.599Z,736.77
2018-12-31T23:12:43.445Z,808.55
2018-12-31T23:15:19.024Z,815.62
2018-12-31T23:17:49.098Z,827.37
2018-12-31T23:20:19.446Z,795.85
2018-12-31T23:22:49.299Z,757.77
2018-12-31T23:25:19.857Z,657.00
2018-12-31T23:27:49.647Z,653.30
2018-12-31T23:30:19.446Z,786.55
2018-12-31T23:32:49.310Z,805.83
2018-12-31T23:35:19.053Z,796.10
2018-12-31T23:37:48.989Z,789.27
2018-12-31T23:40:18.726Z,755.75
2018-12-31T23:42:48.550Z,862.35
2018-12-31T23:45:18.334Z,816.02
2018-12-31T23:47:48.071Z,781.27
2018-12-31T23:50:17.956Z,697.95
2018-12-31T23:52:47.757Z,618.20
2018-12-31T23:55:17.532Z,507.52
2018-12-31T23:57:48.237Z,505.13
